sensor_id;sensor_type;location;lat;lon;timestamp;temperature;humidity
19252;DHT22;9760;50.944;5.304;2023-03-23T00:01:18;12.90;99.90
19252;DHT22;9760;50.944;5.304;2023-03-23T00:03:50;12.90;99.90
19252;DHT22;9760;50.944;5.304;2023-03-23T00:06:16;12.90;99.90
19252;DHT22;9760;50.944;5.304;2023-03-23T00:08:47;12.80;99.90
19252;DHT22;9760;50.944;5.304;2023-03-23T00:11:18;13.00;99.90
19252;DHT22;9760;50.944;5.304;2023-03-23T00:13:47;12.90;99.90
19252;DHT22;9760;50.944;5.304;2023-03-23T00:16:13;12.90;99.90
19252;DHT22;9760;50.944;5.304;2023-03-23T00:18:46;12.90;99.90
19252;DHT22;9760;50.944;5.304;2023-03-23T00:21:12;12.90;99.90
19252;DHT22;9760;50.944;5.304;2023-03-23T00:23:39;12.90;99.90
19252;DHT22;9760;50.944;5.304;2023-03-23T00:26:05;12.90;99.90
19252;DHT22;9760;50.944;5.304;2023-03-23T00:28:31;13.00;99.90
19252;DHT22;9760;50.944;5.304;2023-03-23T00:31:00;12.90;99.90
19252;DHT22;9760;50.944;5.304;2023-03-23T00:33:31;13.00;99.90
19252;DHT22;9760;50.944;5.304;2023-03-23T00:35:59;13.00;99.90
19252;DHT22;9760;50.944;5.304;2023-03-23T00:38:25;12.90;99.90
19252;DHT22;9760;50.944;5.304;2023-03-23T00:40:51;13.00;99.90
19252;DHT22;9760;50.944;5.304;2023-03-23T00:43:18;13.00;99.90
19252;DHT22;9760;50.944;5.304;2023-03-23T00:45:44;13.00;99.90
19252;DHT22;9760;50.944;5.304;2023-03-23T00:48:14;13.00;99.90
19252;DHT22;9760;50.944;5.304;2023-03-23T00:50:40;13.00;99.90
19252;DHT22;9760;50.944;5.304;2023-03-23T00:53:06;13.00;99.90
19252;DHT22;9760;50.944;5.304;2023-03-23T00:55:32;13.00;99.90
19252;DHT22;9760;50.944;5.304;2023-03-23T00:57:59;12.90;99.90
19252;DHT22;9760;50.944;5.304;2023-03-23T01:00:25;12.90;99.90
19252;DHT22;9760;50.944;5.304;2023-03-23T01:02:53;12.90;99.90
19252;DHT22;9760;50.944;5.304;2023-03-23T01:05:18;12.90;99.90
19252;DHT22;9760;50.944;5.304;2023-03-23T01:07:44;12.90;99.90
19252;DHT22;9760;50.944;5.304;2023-03-23T01:10:11;12.90;99.90
19252;DHT22;9760;50.944;5.304;2023-03-23T01:12:43;12.90;99.90
19252;DHT22;9760;50.944;5.304;2023-03-23T01:15:13;12.80;99.90
19252;DHT22;9760;50.944;5.304;2023-03-23T01:17:40;12.90;99.90
19252;DHT22;9760;50.944;5.304;2023-03-23T01:20:06;12.90;99.90
19252;DHT22;9760;50.944;5.304;2023-03-23T01:22:32;12.80;99.90
19252;DHT22;9760;50.944;5.304;2023-03-23T01:24:58;12.80;99.90
19252;DHT22;9760;50.944;5.304;2023-03-23T01:27:23;12.80;99.90
19252;DHT22;9760;50.944;5.304;2023-03-23T01:29:49;12.80;99.90
19252;DHT22;9760;50.944;5.304;2023-03-23T01:32:16;12.80;99.90
19252;DHT22;9760;50.944;5.304;2023-03-23T01:34:41;12.80;99.90
19252;DHT22;9760;50.944;5.304;2023-03-23T01:37:07;12.70;99.90
19252;DHT22;9760;50.944;5.304;2023-03-23T01:39:33;12.70;99.90
19252;DHT22;9760;50.944;5.304;2023-03-23T01:42:00;12.70;99.90
19252;DHT22;9760;50.944;5.304;2023-03-23T01:46:57;12.60;99.90
19252;DHT22;9760;50.944;5.304;2023-03-23T01:49:32;12.60;99.90
19252;DHT22;9760;50.944;5.304;2023-03-23T01:52:09;12.70;99.90
19252;DHT22;9760;50.944;5.304;2023-03-23T01:54:39;12.70;99.90
19252;DHT22;9760;50.944;5.304;2023-03-23T01:57:10;12.80;99.90
19252;DHT22;9760;50.944;5.304;2023-03-23T01:59:37;12.70;99.90
19252;DHT22;9760;50.944;5.304;2023-03-23T02:02:03;12.70;99.90
19252;DHT22;9760;50.944;5.304;2023-03-23T02:04:30;12.70;99.90
19252;DHT22;9760;50.944;5.304;2023-03-23T02:06:57;12.70;99.90
19252;DHT22;9760;50.944;5.304;2023-03-23T02:09:25;12.70;99.90
19252;DHT22;9760;50.944;5.304;2023-03-23T02:11:52;12.70;99.90
19252;DHT22;9760;50.944;5.304;2023-03-23T02:14:19;12.70;99.90
19252;DHT22;9760;50.944;5.304;2023-03-23T02:20:07;12.70;99.90
19252;DHT22;9760;50.944;5.304;2023-03-23T02:37:09;12.70;99.90
19252;DHT22;9760;50.944;5.304;2023-03-23T02:39:23;12.70;99.90
19252;DHT22;9760;50.944;5.304;2023-03-23T02:41:58;12.70;99.90
19252;DHT22;9760;50.944;5.304;2023-03-23T02:44:28;12.70;99.90
19252;DHT22;9760;50.944;5.304;2023-03-23T02:46:56;12.80;99.90
19252;DHT22;9760;50.944;5.304;2023-03-23T02:49:24;12.70;99.90
19252;DHT22;9760;50.944;5.304;2023-03-23T02:51:51;12.80;99.90
19252;DHT22;9760;50.944;5.304;2023-03-23T02:54:18;12.80;99.90
19252;DHT22;9760;50.944;5.304;2023-03-23T02:56:45;12.80;99.90
19252;DHT22;9760;50.944;5.304;2023-03-23T02:59:12;12.80;99.90
19252;DHT22;9760;50.944;5.304;2023-03-23T03:04:15;12.80;99.90
19252;DHT22;9760;50.944;5.304;2023-03-23T03:11:36;12.90;99.90
19252;DHT22;9760;50.944;5.304;2023-03-23T03:14:10;12.80;99.90
19252;DHT22;9760;50.944;5.304;2023-03-23T03:17:01;12.80;99.90
19252;DHT22;9760;50.944;5.304;2023-03-23T03:19:29;12.80;99.90
19252;DHT22;9760;50.944;5.304;2023-03-23T03:21:57;12.80;99.90
19252;DHT22;9760;50.944;5.304;2023-03-23T03:24:25;12.80;99.90
19252;DHT22;9760;50.944;5.304;2023-03-23T03:26:53;12.80;99.90
19252;DHT22;9760;50.944;5.304;2023-03-23T03:29:26;12.90;99.90
19252;DHT22;9760;50.944;5.304;2023-03-23T03:31:53;12.80;99.90
19252;DHT22;9760;50.944;5.304;2023-03-23T03:34:21;12.90;99.90
19252;DHT22;9760;50.944;5.304;2023-03-23T03:36:48;12.90;99.90
19252;DHT22;9760;50.944;5.304;2023-03-23T03:39:16;12.80;99.90
19252;DHT22;9760;50.944;5.304;2023-03-23T03:41:43;12.80;99.90
19252;DHT22;9760;50.944;5.304;2023-03-23T03:44:09;12.90;99.90
19252;DHT22;9760;50.944;5.304;2023-03-23T03:46:35;12.80;99.90
19252;DHT22;9760;50.944;5.304;2023-03-23T03:49:04;12.80;99.90
19252;DHT22;9760;50.944;5.304;2023-03-23T03:51:30;12.80;99.90
19252;DHT22;9760;50.944;5.304;2023-03-23T03:53:56;12.80;99.90
19252;DHT22;9760;50.944;5.304;2023-03-23T03:56:23;12.80;99.90
19252;DHT22;9760;50.944;5.304;2023-03-23T03:58:49;12.80;99.90
19252;DHT22;9760;50.944;5.304;2023-03-23T04:01:16;12.80;99.90
19252;DHT22;9760;50.944;5.304;2023-03-23T04:03:43;12.70;99.90
19252;DHT22;9760;50.944;5.304;2023-03-23T04:06:09;12.80;99.90
19252;DHT22;9760;50.944;5.304;2023-03-23T04:08:36;12.80;99.90
19252;DHT22;9760;50.944;5.304;2023-03-23T04:11:07;12.80;99.90
19252;DHT22;9760;50.944;5.304;2023-03-23T04:13:33;12.80;99.90
19252;DHT22;9760;50.944;5.304;2023-03-23T04:15:58;12.70;99.90
19252;DHT22;9760;50.944;5.304;2023-03-23T04:18:24;12.80;99.90
19252;DHT22;9760;50.944;5.304;2023-03-23T04:20:50;12.70;99.90
19252;DHT22;9760;50.944;5.304;2023-03-23T04:23:17;12.80;99.90
19252;DHT22;9760;50.944;5.304;2023-03-23T04:25:49;12.70;99.90
19252;DHT22;9760;50.944;5.304;2023-03-23T04:28:16;12.70;99.90
19252;DHT22;9760;50.944;5.304;2023-03-23T04:30:44;12.80;99.90
19252;DHT22;9760;50.944;5.304;2023-03-23T04:33:10;12.80;99.90
19252;DHT22;9760;50.944;5.304;2023-03-23T04:35:41;12.80;99.90
19252;DHT22;9760;50.944;5.304;2023-03-23T04:38:08;12.70;99.90
19252;DHT22;9760;50.944;5.304;2023-03-23T04:40:40;12.80;99.90
19252;DHT22;9760;50.944;5.304;2023-03-23T04:43:07;12.70;99.90
19252;DHT22;9760;50.944;5.304;2023-03-23T04:45:34;12.70;99.90
19252;DHT22;9760;50.944;5.304;2023-03-23T04:48:00;12.70;99.90
19252;DHT22;9760;50.944;5.304;2023-03-23T04:50:30;12.70;99.90
19252;DHT22;9760;50.944;5.304;2023-03-23T04:52:59;12.70;99.90
19252;DHT22;9760;50.944;5.304;2023-03-23T04:55:30;12.70;99.90
19252;DHT22;9760;50.944;5.304;2023-03-23T04:57:56;12.70;99.90
19252;DHT22;9760;50.944;5.304;2023-03-23T05:00:25;12.70;99.90
19252;DHT22;9760;50.944;5.304;2023-03-23T05:02:51;12.70;99.90
19252;DHT22;9760;50.944;5.304;2023-03-23T05:05:18;12.60;99.90
19252;DHT22;9760;50.944;5.304;2023-03-23T05:07:44;12.60;99.90
19252;DHT22;9760;50.944;5.304;2023-03-23T05:10:11;12.60;99.90
19252;DHT22;9760;50.944;5.304;2023-03-23T05:12:38;12.60;99.90
19252;DHT22;9760;50.944;5.304;2023-03-23T05:15:04;12.60;99.90
19252;DHT22;9760;50.944;5.304;2023-03-23T05:17:31;12.60;99.90
19252;DHT22;9760;50.944;5.304;2023-03-23T05:19:58;12.70;99.90
19252;DHT22;9760;50.944;5.304;2023-03-23T05:22:26;12.60;99.90
19252;DHT22;9760;50.944;5.304;2023-03-23T05:24:52;12.60;99.90
19252;DHT22;9760;50.944;5.304;2023-03-23T05:27:18;12.50;99.90
19252;DHT22;9760;50.944;5.304;2023-03-23T05:29:45;12.50;99.90
19252;DHT22;9760;50.944;5.304;2023-03-23T05:32:14;12.50;99.90
19252;DHT22;9760;50.944;5.304;2023-03-23T05:34:40;12.50;99.90
19252;DHT22;9760;50.944;5.304;2023-03-23T05:37:08;12.50;99.90
19252;DHT22;9760;50.944;5.304;2023-03-23T05:39:35;12.50;99.90
19252;DHT22;9760;50.944;5.304;2023-03-23T05:42:02;12.50;99.90
19252;DHT22;9760;50.944;5.304;2023-03-23T05:44:28;12.40;99.90
19252;DHT22;9760;50.944;5.304;2023-03-23T05:46:54;12.40;99.90
19252;DHT22;9760;50.944;5.304;2023-03-23T05:49:20;12.40;99.90
19252;DHT22;9760;50.944;5.304;2023-03-23T05:51:46;12.40;99.90
19252;DHT22;9760;50.944;5.304;2023-03-23T05:54:12;12.50;99.90
19252;DHT22;9760;50.944;5.304;2023-03-23T05:56:40;12.40;99.90
19252;DHT22;9760;50.944;5.304;2023-03-23T05:59:05;12.40;99.90
19252;DHT22;9760;50.944;5.304;2023-03-23T06:01:31;12.40;99.90
19252;DHT22;9760;50.944;5.304;2023-03-23T06:03:57;12.50;99.90
19252;DHT22;9760;50.944;5.304;2023-03-23T06:06:24;12.40;99.90
19252;DHT22;9760;50.944;5.304;2023-03-23T06:08:50;12.40;99.90
19252;DHT22;9760;50.944;5.304;2023-03-23T06:11:16;12.40;99.90
19252;DHT22;9760;50.944;5.304;2023-03-23T06:13:41;12.40;99.90
19252;DHT22;9760;50.944;5.304;2023-03-23T06:16:07;12.40;99.90
19252;DHT22;9760;50.944;5.304;2023-03-23T06:18:34;12.40;99.90
19252;DHT22;9760;50.944;5.304;2023-03-23T06:21:02;12.40;99.90
19252;DHT22;9760;50.944;5.304;2023-03-23T06:23:28;12.40;99.90
19252;DHT22;9760;50.944;5.304;2023-03-23T06:25:57;12.50;99.90
19252;DHT22;9760;50.944;5.304;2023-03-23T06:28:23;12.40;99.90
19252;DHT22;9760;50.944;5.304;2023-03-23T06:30:49;12.50;99.90
19252;DHT22;9760;50.944;5.304;2023-03-23T06:33:15;12.50;99.90
19252;DHT22;9760;50.944;5.304;2023-03-23T06:35:42;12.50;99.90
19252;DHT22;9760;50.944;5.304;2023-03-23T06:38:08;12.50;99.90
19252;DHT22;9760;50.944;5.304;2023-03-23T06:40:35;12.50;99.90
19252;DHT22;9760;50.944;5.304;2023-03-23T06:43:01;12.50;99.90
19252;DHT22;9760;50.944;5.304;2023-03-23T06:45:27;12.60;99.90
19252;DHT22;9760;50.944;5.304;2023-03-23T06:47:53;12.60;99.90
19252;DHT22;9760;50.944;5.304;2023-03-23T06:50:18;12.60;99.90
19252;DHT22;9760;50.944;5.304;2023-03-23T06:52:49;12.60;99.90
19252;DHT22;9760;50.944;5.304;2023-03-23T06:55:15;12.70;99.90
19252;DHT22;9760;50.944;5.304;2023-03-23T06:57:42;12.60;99.90
19252;DHT22;9760;50.944;5.304;2023-03-23T07:00:09;12.60;99.90
19252;DHT22;9760;50.944;5.304;2023-03-23T07:02:38;12.60;99.90
19252;DHT22;9760;50.944;5.304;2023-03-23T07:05:05;12.70;99.90
19252;DHT22;9760;50.944;5.304;2023-03-23T07:07:30;12.60;99.90
19252;DHT22;9760;50.944;5.304;2023-03-23T07:09:56;12.60;99.90
19252;DHT22;9760;50.944;5.304;2023-03-23T07:12:23;12.70;99.90
19252;DHT22;9760;50.944;5.304;2023-03-23T07:14:48;12.70;99.90
19252;DHT22;9760;50.944;5.304;2023-03-23T07:17:15;12.70;99.90
19252;DHT22;9760;50.944;5.304;2023-03-23T07:19:40;12.80;99.90
19252;DHT22;9760;50.944;5.304;2023-03-23T07:22:07;12.80;99.90
19252;DHT22;9760;50.944;5.304;2023-03-23T07:24:33;12.90;99.90
19252;DHT22;9760;50.944;5.304;2023-03-23T07:26:59;12.90;99.90
19252;DHT22;9760;50.944;5.304;2023-03-23T07:29:25;12.90;99.90
19252;DHT22;9760;50.944;5.304;2023-03-23T07:31:52;12.90;99.90
19252;DHT22;9760;50.944;5.304;2023-03-23T07:34:18;12.90;99.90
19252;DHT22;9760;50.944;5.304;2023-03-23T07:36:44;13.00;99.90
19252;DHT22;9760;50.944;5.304;2023-03-23T07:39:11;13.00;99.90
19252;DHT22;9760;50.944;5.304;2023-03-23T07:41:37;13.00;99.90
19252;DHT22;9760;50.944;5.304;2023-03-23T07:44:03;13.00;99.90
19252;DHT22;9760;50.944;5.304;2023-03-23T07:46:29;13.00;99.90
19252;DHT22;9760;50.944;5.304;2023-03-23T07:48:55;13.10;99.90
19252;DHT22;9760;50.944;5.304;2023-03-23T07:51:22;13.00;99.90
19252;DHT22;9760;50.944;5.304;2023-03-23T07:53:48;12.90;99.90
19252;DHT22;9760;50.944;5.304;2023-03-23T07:56:14;12.90;99.90
19252;DHT22;9760;50.944;5.304;2023-03-23T07:58:41;12.90;99.90
19252;DHT22;9760;50.944;5.304;2023-03-23T08:01:07;12.90;99.90
19252;DHT22;9760;50.944;5.304;2023-03-23T08:03:33;12.80;99.90
19252;DHT22;9760;50.944;5.304;2023-03-23T08:05:59;12.90;99.90
19252;DHT22;9760;50.944;5.304;2023-03-23T08:08:25;12.90;99.90
19252;DHT22;9760;50.944;5.304;2023-03-23T08:10:51;12.90;99.90
19252;DHT22;9760;50.944;5.304;2023-03-23T08:13:17;12.90;99.90
19252;DHT22;9760;50.944;5.304;2023-03-23T08:15:43;12.90;99.90
19252;DHT22;9760;50.944;5.304;2023-03-23T08:18:10;12.90;99.90
19252;DHT22;9760;50.944;5.304;2023-03-23T08:20:36;12.90;99.90
19252;DHT22;9760;50.944;5.304;2023-03-23T08:23:02;12.90;99.90
19252;DHT22;9760;50.944;5.304;2023-03-23T08:25:28;12.90;99.90
19252;DHT22;9760;50.944;5.304;2023-03-23T08:27:56;12.90;99.90
19252;DHT22;9760;50.944;5.304;2023-03-23T08:30:22;12.90;99.90
19252;DHT22;9760;50.944;5.304;2023-03-23T08:32:49;12.30;99.90
19252;DHT22;9760;50.944;5.304;2023-03-23T08:35:16;11.80;99.90
19252;DHT22;9760;50.944;5.304;2023-03-23T08:37:43;11.40;99.90
19252;DHT22;9760;50.944;5.304;2023-03-23T08:40:11;11.20;99.90
19252;DHT22;9760;50.944;5.304;2023-03-23T08:42:40;10.90;99.90
19252;DHT22;9760;50.944;5.304;2023-03-23T08:45:08;10.70;99.90
19252;DHT22;9760;50.944;5.304;2023-03-23T08:47:35;10.70;99.90
19252;DHT22;9760;50.944;5.304;2023-03-23T08:50:03;10.70;99.90
19252;DHT22;9760;50.944;5.304;2023-03-23T08:52:28;10.60;99.90
19252;DHT22;9760;50.944;5.304;2023-03-23T08:54:54;10.30;99.90
19252;DHT22;9760;50.944;5.304;2023-03-23T08:57:20;10.30;99.90
19252;DHT22;9760;50.944;5.304;2023-03-23T08:59:46;10.20;99.90
19252;DHT22;9760;50.944;5.304;2023-03-23T09:02:12;10.20;99.90
19252;DHT22;9760;50.944;5.304;2023-03-23T09:04:39;10.20;99.90
19252;DHT22;9760;50.944;5.304;2023-03-23T09:07:05;10.20;99.90
19252;DHT22;9760;50.944;5.304;2023-03-23T09:09:31;10.20;99.90
19252;DHT22;9760;50.944;5.304;2023-03-23T09:11:59;10.20;99.90
19252;DHT22;9760;50.944;5.304;2023-03-23T09:14:25;10.20;99.90
19252;DHT22;9760;50.944;5.304;2023-03-23T09:16:50;10.30;99.90
19252;DHT22;9760;50.944;5.304;2023-03-23T09:19:16;10.40;99.90
19252;DHT22;9760;50.944;5.304;2023-03-23T09:21:43;10.50;99.90
19252;DHT22;9760;50.944;5.304;2023-03-23T09:24:10;10.60;99.90
19252;DHT22;9760;50.944;5.304;2023-03-23T09:26:36;10.70;99.90
19252;DHT22;9760;50.944;5.304;2023-03-23T09:29:02;10.90;99.90
19252;DHT22;9760;50.944;5.304;2023-03-23T09:31:28;11.00;99.90
19252;DHT22;9760;50.944;5.304;2023-03-23T09:33:54;11.10;99.90
19252;DHT22;9760;50.944;5.304;2023-03-23T09:36:23;11.10;99.90
19252;DHT22;9760;50.944;5.304;2023-03-23T09:38:51;11.10;99.90
19252;DHT22;9760;50.944;5.304;2023-03-23T09:49:43;11.10;99.90
19252;DHT22;9760;50.944;5.304;2023-03-23T09:52:18;11.10;99.90
19252;DHT22;9760;50.944;5.304;2023-03-23T09:54:53;11.10;99.90
19252;DHT22;9760;50.944;5.304;2023-03-23T10:00:18;11.20;99.90
19252;DHT22;9760;50.944;5.304;2023-03-23T10:08:14;11.50;99.90
19252;DHT22;9760;50.944;5.304;2023-03-23T10:15:58;10.90;99.90
19252;DHT22;9760;50.944;5.304;2023-03-23T10:18:29;10.90;99.90
19252;DHT22;9760;50.944;5.304;2023-03-23T10:20:59;10.90;99.90
19252;DHT22;9760;50.944;5.304;2023-03-23T10:24:07;11.00;99.90
19252;DHT22;9760;50.944;5.304;2023-03-23T10:26:41;11.20;99.90
19252;DHT22;9760;50.944;5.304;2023-03-23T10:29:17;11.30;99.90
19252;DHT22;9760;50.944;5.304;2023-03-23T10:31:55;11.40;99.90
19252;DHT22;9760;50.944;5.304;2023-03-23T10:34:32;11.60;99.90
19252;DHT22;9760;50.944;5.304;2023-03-23T10:37:09;11.60;99.90
19252;DHT22;9760;50.944;5.304;2023-03-23T10:42:32;11.90;99.90
19252;DHT22;9760;50.944;5.304;2023-03-23T10:45:00;11.90;99.90
19252;DHT22;9760;50.944;5.304;2023-03-23T10:47:38;11.90;99.90
19252;DHT22;9760;50.944;5.304;2023-03-23T10:50:12;11.80;99.90
19252;DHT22;9760;50.944;5.304;2023-03-23T10:52:44;11.80;99.90
19252;DHT22;9760;50.944;5.304;2023-03-23T10:55:15;11.80;99.90
19252;DHT22;9760;50.944;5.304;2023-03-23T10:57:46;11.90;99.90
19252;DHT22;9760;50.944;5.304;2023-03-23T11:00:20;11.80;99.90
19252;DHT22;9760;50.944;5.304;2023-03-23T11:03:52;11.80;99.90
19252;DHT22;9760;50.944;5.304;2023-03-23T11:05:57;11.70;99.90
19252;DHT22;9760;50.944;5.304;2023-03-23T11:08:27;11.70;99.90
19252;DHT22;9760;50.944;5.304;2023-03-23T11:13:39;11.70;99.90
19252;DHT22;9760;50.944;5.304;2023-03-23T11:16:08;11.80;99.90
19252;DHT22;9760;50.944;5.304;2023-03-23T11:18:40;11.90;99.90
19252;DHT22;9760;50.944;5.304;2023-03-23T11:21:09;12.00;99.90
19252;DHT22;9760;50.944;5.304;2023-03-23T11:23:42;12.00;99.90
19252;DHT22;9760;50.944;5.304;2023-03-23T11:28:54;12.00;99.90
19252;DHT22;9760;50.944;5.304;2023-03-23T11:31:23;12.00;99.90
19252;DHT22;9760;50.944;5.304;2023-03-23T11:33:57;11.90;99.90
19252;DHT22;9760;50.944;5.304;2023-03-23T11:36:54;12.10;99.90
19252;DHT22;9760;50.944;5.304;2023-03-23T11:39:27;12.40;99.90
19252;DHT22;9760;50.944;5.304;2023-03-23T11:41:54;12.70;99.90
19252;DHT22;9760;50.944;5.304;2023-03-23T11:44:22;12.80;99.90
19252;DHT22;9760;50.944;5.304;2023-03-23T11:49:57;13.10;99.90
19252;DHT22;9760;50.944;5.304;2023-03-23T11:53:06;13.10;99.90
19252;DHT22;9760;50.944;5.304;2023-03-23T11:55:52;13.10;99.90
19252;DHT22;9760;50.944;5.304;2023-03-23T11:58:20;13.30;99.90
19252;DHT22;9760;50.944;5.304;2023-03-23T12:01:06;13.30;99.90
19252;DHT22;9760;50.944;5.304;2023-03-23T12:06:35;13.70;99.90
19252;DHT22;9760;50.944;5.304;2023-03-23T12:12:41;14.00;99.90
19252;DHT22;9760;50.944;5.304;2023-03-23T12:15:28;14.10;99.90
19252;DHT22;9760;50.944;5.304;2023-03-23T12:26:46;14.10;99.90
19252;DHT22;9760;50.944;5.304;2023-03-23T12:29:31;14.00;99.90
19252;DHT22;9760;50.944;5.304;2023-03-23T12:34:54;14.20;99.90
19252;DHT22;9760;50.944;5.304;2023-03-23T12:43:08;14.10;99.90
19252;DHT22;9760;50.944;5.304;2023-03-23T12:46:29;13.90;99.90
19252;DHT22;9760;50.944;5.304;2023-03-23T12:51:40;13.50;99.90
19252;DHT22;9760;50.944;5.304;2023-03-23T12:57:48;13.50;99.90
19252;DHT22;9760;50.944;5.304;2023-03-23T13:03:17;13.60;99.90
19252;DHT22;9760;50.944;5.304;2023-03-23T13:05:48;13.70;99.90
19252;DHT22;9760;50.944;5.304;2023-03-23T13:08:34;13.90;99.90
19252;DHT22;9760;50.944;5.304;2023-03-23T13:11:04;14.10;99.90
19252;DHT22;9760;50.944;5.304;2023-03-23T13:14:07;14.30;99.90
19252;DHT22;9760;50.944;5.304;2023-03-23T13:16:53;14.40;99.90
19252;DHT22;9760;50.944;5.304;2023-03-23T13:22:15;14.30;99.90
19252;DHT22;9760;50.944;5.304;2023-03-23T13:24:52;14.30;99.90
19252;DHT22;9760;50.944;5.304;2023-03-23T13:27:23;14.10;99.90
19252;DHT22;9760;50.944;5.304;2023-03-23T13:29:51;14.10;99.90
19252;DHT22;9760;50.944;5.304;2023-03-23T13:32:18;14.00;99.90
19252;DHT22;9760;50.944;5.304;2023-03-23T13:34:46;13.90;99.90
19252;DHT22;9760;50.944;5.304;2023-03-23T13:37:20;13.60;99.90
19252;DHT22;9760;50.944;5.304;2023-03-23T13:39:52;13.40;99.90
19252;DHT22;9760;50.944;5.304;2023-03-23T13:42:27;13.20;99.90
19252;DHT22;9760;50.944;5.304;2023-03-23T13:47:44;12.90;99.90
19252;DHT22;9760;50.944;5.304;2023-03-23T13:50:26;12.80;99.90
19252;DHT22;9760;50.944;5.304;2023-03-23T13:52:59;12.80;99.90
19252;DHT22;9760;50.944;5.304;2023-03-23T14:13:04;14.20;99.90
19252;DHT22;9760;50.944;5.304;2023-03-23T14:15:41;14.30;99.90
19252;DHT22;9760;50.944;5.304;2023-03-23T14:18:14;14.40;99.90
19252;DHT22;9760;50.944;5.304;2023-03-23T14:20:41;14.40;99.90
19252;DHT22;9760;50.944;5.304;2023-03-23T14:23:15;14.40;99.90
19252;DHT22;9760;50.944;5.304;2023-03-23T14:25:41;14.40;99.90
19252;DHT22;9760;50.944;5.304;2023-03-23T14:28:18;14.50;99.90
19252;DHT22;9760;50.944;5.304;2023-03-23T14:30:44;14.50;99.90
19252;DHT22;9760;50.944;5.304;2023-03-23T14:33:12;14.80;99.90
19252;DHT22;9760;50.944;5.304;2023-03-23T14:35:41;15.00;99.90
19252;DHT22;9760;50.944;5.304;2023-03-23T14:38:17;15.10;99.90
19252;DHT22;9760;50.944;5.304;2023-03-23T14:40:44;15.00;99.90
19252;DHT22;9760;50.944;5.304;2023-03-23T14:43:13;15.00;99.90
19252;DHT22;9760;50.944;5.304;2023-03-23T14:45:41;14.90;99.90
19252;DHT22;9760;50.944;5.304;2023-03-23T14:48:07;14.80;99.90
19252;DHT22;9760;50.944;5.304;2023-03-23T14:50:42;14.80;99.90
19252;DHT22;9760;50.944;5.304;2023-03-23T14:53:23;14.70;99.90
19252;DHT22;9760;50.944;5.304;2023-03-23T14:55:53;14.40;99.90
19252;DHT22;9760;50.944;5.304;2023-03-23T14:58:22;14.30;99.90
19252;DHT22;9760;50.944;5.304;2023-03-23T15:01:10;14.30;99.90
19252;DHT22;9760;50.944;5.304;2023-03-23T15:03:56;14.50;99.90
19252;DHT22;9760;50.944;5.304;2023-03-23T15:06:25;14.60;99.90
19252;DHT22;9760;50.944;5.304;2023-03-23T15:08:54;14.60;99.90
19252;DHT22;9760;50.944;5.304;2023-03-23T15:11:39;14.60;99.90
19252;DHT22;9760;50.944;5.304;2023-03-23T15:14:20;14.60;99.90
19252;DHT22;9760;50.944;5.304;2023-03-23T15:16:50;14.50;99.90
19252;DHT22;9760;50.944;5.304;2023-03-23T15:19:20;14.50;99.90
19252;DHT22;9760;50.944;5.304;2023-03-23T15:21:53;14.50;99.90
19252;DHT22;9760;50.944;5.304;2023-03-23T15:26:52;14.20;99.90
19252;DHT22;9760;50.944;5.304;2023-03-23T15:29:20;14.10;99.90
19252;DHT22;9760;50.944;5.304;2023-03-23T15:31:53;14.00;99.90
19252;DHT22;9760;50.944;5.304;2023-03-23T15:34:34;14.00;99.90
19252;DHT22;9760;50.944;5.304;2023-03-23T15:37:13;14.00;99.90
19252;DHT22;9760;50.944;5.304;2023-03-23T15:39:41;14.10;99.90
19252;DHT22;9760;50.944;5.304;2023-03-23T15:50:12;14.40;99.90
19252;DHT22;9760;50.944;5.304;2023-03-23T15:52:38;14.50;99.90
19252;DHT22;9760;50.944;5.304;2023-03-23T15:57:48;14.80;99.90
19252;DHT22;9760;50.944;5.304;2023-03-23T16:00:16;15.10;99.90
19252;DHT22;9760;50.944;5.304;2023-03-23T16:02:41;15.20;99.90
19252;DHT22;9760;50.944;5.304;2023-03-23T16:05:11;15.30;99.90
19252;DHT22;9760;50.944;5.304;2023-03-23T16:07:36;15.20;99.90
19252;DHT22;9760;50.944;5.304;2023-03-23T16:10:03;15.20;99.90
19252;DHT22;9760;50.944;5.304;2023-03-23T16:12:29;15.10;99.90
19252;DHT22;9760;50.944;5.304;2023-03-23T16:14:54;15.10;99.90
19252;DHT22;9760;50.944;5.304;2023-03-23T16:17:20;15.20;99.90
19252;DHT22;9760;50.944;5.304;2023-03-23T16:19:46;15.10;99.90
19252;DHT22;9760;50.944;5.304;2023-03-23T16:22:12;15.00;99.90
19252;DHT22;9760;50.944;5.304;2023-03-23T16:24:37;15.00;99.90
19252;DHT22;9760;50.944;5.304;2023-03-23T16:27:04;14.90;99.90
19252;DHT22;9760;50.944;5.304;2023-03-23T16:29:29;14.90;99.90
19252;DHT22;9760;50.944;5.304;2023-03-23T16:31:56;14.90;99.90
19252;DHT22;9760;50.944;5.304;2023-03-23T16:34:21;14.90;99.90
19252;DHT22;9760;50.944;5.304;2023-03-23T16:36:47;14.90;99.90
19252;DHT22;9760;50.944;5.304;2023-03-23T16:39:13;14.80;99.90
19252;DHT22;9760;50.944;5.304;2023-03-23T16:41:40;14.80;99.90
19252;DHT22;9760;50.944;5.304;2023-03-23T16:44:06;15.10;99.90
19252;DHT22;9760;50.944;5.304;2023-03-23T16:46:31;15.30;99.90
19252;DHT22;9760;50.944;5.304;2023-03-23T16:48:57;15.60;99.90
19252;DHT22;9760;50.944;5.304;2023-03-23T16:51:23;16.10;99.90
19252;DHT22;9760;50.944;5.304;2023-03-23T16:53:48;15.80;99.90
19252;DHT22;9760;50.944;5.304;2023-03-23T16:56:14;15.60;99.90
19252;DHT22;9760;50.944;5.304;2023-03-23T16:58:40;15.60;99.90
19252;DHT22;9760;50.944;5.304;2023-03-23T17:01:06;15.30;99.90
19252;DHT22;9760;50.944;5.304;2023-03-23T17:03:32;15.10;99.90
19252;DHT22;9760;50.944;5.304;2023-03-23T17:05:59;15.00;99.90
19252;DHT22;9760;50.944;5.304;2023-03-23T17:08:26;14.90;99.90
19252;DHT22;9760;50.944;5.304;2023-03-23T17:10:52;14.90;99.90
19252;DHT22;9760;50.944;5.304;2023-03-23T17:13:20;14.90;99.90
19252;DHT22;9760;50.944;5.304;2023-03-23T17:15:46;14.80;99.90
19252;DHT22;9760;50.944;5.304;2023-03-23T17:18:12;14.80;99.90
19252;DHT22;9760;50.944;5.304;2023-03-23T17:20:38;14.80;99.90
19252;DHT22;9760;50.944;5.304;2023-03-23T17:23:04;14.80;99.90
19252;DHT22;9760;50.944;5.304;2023-03-23T17:25:30;14.80;99.90
19252;DHT22;9760;50.944;5.304;2023-03-23T17:27:57;14.70;99.90
19252;DHT22;9760;50.944;5.304;2023-03-23T17:30:23;14.70;99.90
19252;DHT22;9760;50.944;5.304;2023-03-23T17:32:48;14.70;99.90
19252;DHT22;9760;50.944;5.304;2023-03-23T17:35:14;14.60;99.90
19252;DHT22;9760;50.944;5.304;2023-03-23T17:37:41;14.50;99.90
19252;DHT22;9760;50.944;5.304;2023-03-23T17:40:08;14.50;99.90
19252;DHT22;9760;50.944;5.304;2023-03-23T17:42:38;14.50;99.90
19252;DHT22;9760;50.944;5.304;2023-03-23T17:45:05;14.40;99.90
19252;DHT22;9760;50.944;5.304;2023-03-23T17:47:31;14.40;99.90
19252;DHT22;9760;50.944;5.304;2023-03-23T17:49:56;14.40;99.90
19252;DHT22;9760;50.944;5.304;2023-03-23T17:52:22;14.40;99.90
19252;DHT22;9760;50.944;5.304;2023-03-23T17:54:48;14.50;99.90
19252;DHT22;9760;50.944;5.304;2023-03-23T17:57:14;14.40;99.90
19252;DHT22;9760;50.944;5.304;2023-03-23T17:59:39;14.50;99.90
19252;DHT22;9760;50.944;5.304;2023-03-23T18:02:05;14.40;99.90
19252;DHT22;9760;50.944;5.304;2023-03-23T18:04:31;14.40;99.90
19252;DHT22;9760;50.944;5.304;2023-03-23T18:06:57;14.40;99.90